createdAt,value
2023-04-19T00:00:11.934Z,8.6
2023-04-19T00:03:13.683Z,8.5
2023-04-19T00:06:11.939Z,8.4
2023-04-19T00:09:11.989Z,8.4
2023-04-19T00:12:11.931Z,8.3
2023-04-19T00:15:11.968Z,8.1
2023-04-19T00:18:12.397Z,8.1
2023-04-19T00:21:11.942Z,8
2023-04-19T00:24:11.918Z,8
2023-04-19T00:27:11.995Z,7.7
2023-04-19T00:30:12.047Z,7.6
2023-04-19T00:33:12.349Z,7.5
2023-04-19T00:36:11.859Z,7.5
2023-04-19T00:39:11.917Z,7.2
2023-04-19T00:42:11.880Z,7.1
2023-04-19T00:45:11.828Z,7
2023-04-19T00:48:12.534Z,6.7
2023-04-19T00:51:11.853Z,6.6
2023-04-19T00:54:11.952Z,6.4
2023-04-19T00:57:11.888Z,6.2
2023-04-19T01:00:11.984Z,6.1
2023-04-19T01:03:12.956Z,5.9
2023-04-19T01:06:12.148Z,5.7
2023-04-19T01:09:11.904Z,5.6
2023-04-19T01:12:11.989Z,5.6
2023-04-19T01:15:11.915Z,5.6
2023-04-19T01:18:12.362Z,5.7
2023-04-19T01:21:11.967Z,5.7
2023-04-19T01:24:12.016Z,5.7
2023-04-19T01:27:11.940Z,5.7
2023-04-19T01:30:11.920Z,5.6
2023-04-19T01:33:12.148Z,5.5
2023-04-19T01:36:12.038Z,5.4
2023-04-19T01:39:11.928Z,5.2
2023-04-19T01:42:11.968Z,5.1
2023-04-19T01:45:11.890Z,5
2023-04-19T01:48:12.437Z,4.9
2023-04-19T01:51:11.867Z,4.7
2023-04-19T01:54:11.939Z,4.6
2023-04-19T01:57:11.916Z,4.5
2023-04-19T02:00:12.012Z,4.5
2023-04-19T02:03:12.978Z,4.4
2023-04-19T02:06:12.052Z,4.4
2023-04-19T02:09:12.030Z,4.2
2023-04-19T02:12:12.033Z,4.1
2023-04-19T02:15:12.360Z,4
2023-04-19T02:18:12.632Z,3.9
2023-04-19T02:21:12.117Z,3.9
2023-04-19T02:24:12.020Z,3.9
2023-04-19T02:27:11.934Z,3.9
2023-04-19T02:30:12.349Z,3.9
2023-04-19T02:33:12.153Z,3.7
2023-04-19T02:36:12.113Z,3.6
2023-04-19T02:39:11.999Z,3.6
2023-04-19T02:42:11.957Z,3.5
2023-04-19T02:45:12.052Z,3.5
2023-04-19T02:48:12.476Z,3.5
2023-04-19T02:51:11.919Z,3.4
2023-04-19T02:54:11.941Z,3.4
2023-04-19T02:57:12.099Z,3.2
2023-04-19T03:00:12.003Z,3.2
2023-04-19T03:03:13.219Z,3.1
2023-04-19T03:06:12.081Z,3
2023-04-19T03:09:11.935Z,2.9
2023-04-19T03:12:11.968Z,2.7
2023-04-19T03:15:11.970Z,2.7
2023-04-19T03:18:12.024Z,2.6
2023-04-19T03:21:12.007Z,2.5
2023-04-19T03:24:12.041Z,2.5
2023-04-19T03:27:11.856Z,2.4
2023-04-19T03:30:12.019Z,2.2
2023-04-19T03:33:12.233Z,2.1
2023-04-19T03:36:12.007Z,2.1
2023-04-19T03:39:11.947Z,2
2023-04-19T03:42:11.996Z,2
2023-04-19T03:45:11.899Z,1.9
2023-04-19T03:48:14.418Z,1.9
2023-04-19T03:51:11.801Z,1.9
2023-04-19T03:54:11.918Z,1.9
2023-04-19T03:57:11.811Z,2
2023-04-19T04:00:12.014Z,2.1
2023-04-19T04:03:13.714Z,2.2
2023-04-19T04:06:12.028Z,2.4
2023-04-19T04:09:12.111Z,2.5
2023-04-19T04:12:11.972Z,2.5
2023-04-19T04:15:11.978Z,2.6
2023-04-19T04:18:15.031Z,2.7
2023-04-19T04:21:11.918Z,2.9
2023-04-19T04:24:12.511Z,2.9
2023-04-19T04:27:12.080Z,3.1
2023-04-19T04:30:12.201Z,3.2
2023-04-19T04:33:12.322Z,3.4
2023-04-19T04:36:14.274Z,3.5
2023-04-19T04:39:11.952Z,3.7
2023-04-19T04:42:12.042Z,5
2023-04-19T04:45:12.647Z,6.2
2023-04-19T04:48:12.318Z,8.1
2023-04-19T04:51:11.940Z,9.6
2023-04-19T04:54:12.107Z,11
2023-04-19T04:57:12.136Z,12.2
2023-04-19T05:00:12.644Z,13.4
2023-04-19T05:03:13.326Z,14.4
2023-04-19T05:06:12.008Z,15.4
2023-04-19T05:09:12.068Z,16.3
2023-04-19T05:12:12.078Z,17
2023-04-19T05:15:12.060Z,17.6
2023-04-19T05:18:12.244Z,18.3
2023-04-19T05:21:11.967Z,18.8
2023-04-19T05:24:12.125Z,19.1
2023-04-19T05:27:12.064Z,19
2023-04-19T05:30:12.412Z,19.6
2023-04-19T05:33:12.344Z,20
2023-04-19T05:36:12.061Z,20.5
2023-04-19T05:39:12.102Z,20.9
2023-04-19T05:42:12.039Z,21.2
2023-04-19T05:45:14.941Z,21.5
2023-04-19T05:48:12.275Z,21.9
2023-04-19T05:51:11.976Z,22.2
2023-04-19T05:54:12.008Z,22.5
2023-04-19T05:57:12.019Z,22.8
2023-04-19T06:00:12.458Z,23.3
2023-04-19T06:03:13.583Z,23.5
2023-04-19T06:06:12.660Z,23.3
2023-04-19T06:09:12.111Z,23.7
2023-04-19T06:12:11.992Z,24.4
2023-04-19T06:15:12.234Z,24.9
2023-04-19T06:18:20.932Z,25.4
2023-04-19T06:21:11.976Z,25.6
2023-04-19T06:24:12.367Z,26.2
2023-04-19T06:27:11.929Z,27
2023-04-19T06:30:12.648Z,27.4
2023-04-19T06:33:12.242Z,27.6
2023-04-19T06:36:12.062Z,27.9
2023-04-19T06:39:11.980Z,28
2023-04-19T06:42:12.056Z,28.4
2023-04-19T06:45:12.662Z,28.6
2023-04-19T06:48:12.604Z,28.7
2023-04-19T06:51:12.212Z,29
2023-04-19T06:54:12.186Z,29.4
2023-04-19T06:57:12.083Z,29.1
2023-04-19T07:00:13.058Z,29.1
2023-04-19T07:03:13.614Z,29.3
2023-04-19T07:06:12.139Z,29
2023-04-19T07:09:12.136Z,28.9
2023-04-19T07:12:12.048Z,29
2023-04-19T07:15:12.028Z,29
2023-04-19T07:18:12.243Z,29.1
2023-04-19T07:21:12.019Z,29.6
2023-04-19T07:24:12.099Z,30
2023-04-19T07:27:12.100Z,30.3
2023-04-19T07:30:12.264Z,30.6
2023-04-19T07:33:12.183Z,31.1
2023-04-19T07:36:12.552Z,31.4
2023-04-19T07:39:12.208Z,31.5
2023-04-19T07:42:12.193Z,31.5
2023-04-19T07:45:12.034Z,31.6
2023-04-19T07:48:12.443Z,31.6
2023-04-19T07:51:12.056Z,32
2023-04-19T07:54:12.184Z,32.6
2023-04-19T07:57:12.199Z,32.9
2023-04-19T08:00:13.186Z,33.2
2023-04-19T08:03:17.689Z,33.2
2023-04-19T08:06:13.729Z,33.5
2023-04-19T08:09:14.891Z,33.2
2023-04-19T08:12:42.913Z,33.4
2023-04-19T08:18:13.040Z,33.5
2023-04-19T08:21:12.849Z,33.7
2023-04-19T08:27:12.469Z,34.5
2023-04-19T08:30:12.179Z,34.7
2023-04-19T08:33:12.558Z,34.6
2023-04-19T08:36:12.658Z,34.7
2023-04-19T08:39:42.059Z,35.1
2023-04-19T08:48:14.057Z,34.7
2023-04-19T08:51:17.053Z,34.4
2023-04-19T08:54:12.045Z,34.4
2023-04-19T08:57:12.239Z,34.2
2023-04-19T09:00:12.115Z,34
2023-04-19T09:03:13.892Z,33.9
2023-04-19T09:06:13.516Z,34
2023-04-19T09:12:12.177Z,34.5
2023-04-19T09:15:14.049Z,35
2023-04-19T09:18:12.682Z,35.4
2023-04-19T09:21:11.987Z,35.5
2023-04-19T09:24:15.118Z,35.6
2023-04-19T09:27:12.124Z,35.7
2023-04-19T09:30:32.674Z,35.7
2023-04-19T09:33:12.964Z,35.9
2023-04-19T09:36:13.684Z,35.7
2023-04-19T09:39:12.144Z,35.7
2023-04-19T09:42:12.116Z,35.7
2023-04-19T09:45:41.721Z,35.7
2023-04-19T09:48:12.946Z,35.6
2023-04-19T09:51:23.486Z,35.6
2023-04-19T09:54:12.037Z,35.6
2023-04-19T09:57:12.840Z,35.5
2023-04-19T10:00:12.483Z,35.5
2023-04-19T10:03:12.567Z,35.6
2023-04-19T10:07:19.133Z,35.7
2023-04-19T10:09:12.235Z,36
2023-04-19T10:15:12.045Z,36.4
2023-04-19T10:18:12.362Z,36.5
2023-04-19T10:21:12.024Z,36.5
2023-04-19T10:24:11.950Z,36.4
2023-04-19T10:27:11.996Z,36.7
2023-04-19T10:30:15.081Z,37.2
2023-04-19T10:33:12.501Z,37.6
2023-04-19T10:36:11.967Z,37.6
2023-04-19T10:39:12.105Z,37.4
2023-04-19T10:42:12.106Z,37.4
2023-04-19T10:45:12.035Z,37.2
2023-04-19T10:48:12.164Z,37.2
2023-04-19T10:51:12.079Z,37
2023-04-19T10:54:12.095Z,36.7
2023-04-19T10:57:12.594Z,36.7
2023-04-19T11:00:12.310Z,36.7
2023-04-19T11:03:13.680Z,36.6
2023-04-19T11:06:11.921Z,36.6
2023-04-19T11:09:11.948Z,36.7
2023-04-19T11:12:12.091Z,36.7
2023-04-19T11:15:12.102Z,36.7
2023-04-19T11:18:24.366Z,36.7
2023-04-19T11:21:11.890Z,37
2023-04-19T11:24:12.004Z,37.4
2023-04-19T11:27:11.902Z,37.2
2023-04-19T11:30:12.343Z,37
2023-04-19T11:33:12.239Z,37
2023-04-19T11:36:12.062Z,36.7
2023-04-19T11:39:11.980Z,36.5
2023-04-19T11:42:12.009Z,36.1
2023-04-19T11:45:36.828Z,36.4
2023-04-19T11:48:12.929Z,36.5
2023-04-19T11:51:12.143Z,36.7
2023-04-19T11:54:12.117Z,37
2023-04-19T11:57:12.019Z,37.2
2023-04-19T12:00:12.476Z,37.2
2023-04-19T12:03:14.914Z,37
2023-04-19T12:06:13.038Z,36.9
2023-04-19T12:09:12.408Z,37.4
2023-04-19T12:12:11.993Z,35.7
2023-04-19T12:15:12.248Z,33.5
2023-04-19T12:18:12.381Z,35.2
2023-04-19T12:21:12.632Z,36.2
2023-04-19T12:24:12.072Z,36.9
2023-04-19T12:27:17.336Z,37.4
2023-04-19T12:30:12.290Z,37.9
2023-04-19T12:33:12.485Z,37.9
2023-04-19T12:36:13.084Z,35.9
2023-04-19T12:39:12.059Z,37.4
2023-04-19T12:42:12.170Z,38.5
2023-04-19T12:45:12.072Z,39
2023-04-19T12:48:12.557Z,35.1
2023-04-19T12:51:12.038Z,32.5
2023-04-19T12:54:12.122Z,36
2023-04-19T12:57:14.607Z,34.6
2023-04-19T13:00:12.791Z,34
2023-04-19T13:03:13.100Z,36.4
2023-04-19T13:06:12.042Z,38.1
2023-04-19T13:09:22.394Z,35
2023-04-19T13:12:11.990Z,35.7
2023-04-19T13:15:15.927Z,31.9
2023-04-19T13:18:12.578Z,35
2023-04-19T13:21:14.564Z,36.9
2023-04-19T13:24:12.096Z,35.7
2023-04-19T13:27:15.393Z,35.6
2023-04-19T13:30:12.360Z,31.6
2023-04-19T13:33:14.861Z,28.5
2023-04-19T13:36:12.085Z,28.3
2023-04-19T13:39:14.901Z,31.1
2023-04-19T13:42:11.977Z,30.3
2023-04-19T13:45:12.026Z,29.1
2023-04-19T13:48:12.243Z,27
2023-04-19T13:51:12.061Z,25.4
2023-04-19T13:54:12.065Z,26.6
2023-04-19T13:57:12.039Z,27.5
2023-04-19T14:00:12.033Z,25.4
2023-04-19T14:03:13.653Z,24
2023-04-19T14:06:12.157Z,23
2023-04-19T14:09:11.957Z,22.1
2023-04-19T14:12:12.071Z,21.4
2023-04-19T14:15:12.139Z,21.1
2023-04-19T14:18:12.555Z,21.8
2023-04-19T14:21:12.125Z,25.1
2023-04-19T14:24:12.050Z,26
2023-04-19T14:27:22.585Z,24.6
2023-04-19T14:30:12.316Z,25.8
2023-04-19T14:33:12.275Z,30
2023-04-19T14:36:12.068Z,32.6
2023-04-19T14:39:12.019Z,34.9
2023-04-19T14:42:12.031Z,34
2023-04-19T14:45:11.960Z,29.1
2023-04-19T14:48:12.421Z,25.9
2023-04-19T14:51:12.185Z,24
2023-04-19T14:54:11.947Z,22.2
2023-04-19T14:57:12.008Z,26.6
2023-04-19T15:00:12.535Z,30.5
2023-04-19T15:03:13.496Z,31.9
2023-04-19T15:06:11.963Z,29.1
2023-04-19T15:09:12.061Z,29.9
2023-04-19T15:12:11.967Z,26.1
2023-04-19T15:15:12.006Z,24.5
2023-04-19T15:18:12.373Z,27.8
2023-04-19T15:21:12.024Z,30.1
2023-04-19T15:24:12.160Z,31.8
2023-04-19T15:27:11.968Z,29.4
2023-04-19T15:30:11.995Z,27.2
2023-04-19T15:33:12.324Z,23.3
2023-04-19T15:36:12.141Z,20.5
2023-04-19T15:39:12.005Z,19.3
2023-04-19T15:42:12.085Z,22
2023-04-19T15:45:12.019Z,24.7
2023-04-19T15:48:12.449Z,26.4
2023-04-19T15:51:12.108Z,27.5
2023-04-19T15:54:11.910Z,28.5
2023-04-19T15:57:12.024Z,29.3
2023-04-19T16:00:12.289Z,29.9
2023-04-19T16:03:13.471Z,29.8
2023-04-19T16:06:12.133Z,29.1
2023-04-19T16:09:11.882Z,28.6
2023-04-19T16:12:12.045Z,28.3
2023-04-19T16:15:11.982Z,27.9
2023-04-19T16:18:12.346Z,27.5
2023-04-19T16:21:12.006Z,27.1
2023-04-19T16:24:12.050Z,26.6
2023-04-19T16:27:11.930Z,26.2
2023-04-19T16:30:12.107Z,25.9
2023-04-19T16:33:12.408Z,25.6
2023-04-19T16:36:12.072Z,24.3
2023-04-19T16:39:12.383Z,21.5
2023-04-19T16:42:12.067Z,19.3
2023-04-19T16:45:12.080Z,19.1
2023-04-19T16:48:12.466Z,21.2
2023-04-19T16:51:12.003Z,22
2023-04-19T16:54:12.088Z,20.9
2023-04-19T16:57:11.999Z,18.4
2023-04-19T17:00:12.045Z,16.9
2023-04-19T17:03:13.328Z,16.1
2023-04-19T17:06:11.956Z,15.1
2023-04-19T17:09:12.091Z,14.6
2023-04-19T17:12:12.590Z,14.6
2023-04-19T17:15:11.981Z,14.4
2023-04-19T17:18:12.401Z,14.1
2023-04-19T17:21:11.931Z,13.8
2023-04-19T17:24:12.035Z,13.5
2023-04-19T17:27:11.998Z,13.3
2023-04-19T17:30:12.119Z,12.9
2023-04-19T17:33:12.509Z,12.5
2023-04-19T17:36:12.070Z,12.1
2023-04-19T17:39:11.980Z,11.9
2023-04-19T17:42:12.029Z,11.8
2023-04-19T17:45:12.092Z,11.6
2023-04-19T17:48:12.504Z,11.6
2023-04-19T17:51:12.083Z,11.5
2023-04-19T17:54:12.016Z,11.5
2023-04-19T17:57:11.949Z,11.4
2023-04-19T18:00:12.088Z,11.3
2023-04-19T18:03:12.823Z,11.1
2023-04-19T18:06:12.181Z,11
2023-04-19T18:09:12.017Z,10.9
2023-04-19T18:12:12.044Z,10.8
2023-04-19T18:15:11.978Z,10.6
2023-04-19T18:18:12.394Z,10.5
2023-04-19T18:21:12.033Z,10.5
2023-04-19T18:24:12.066Z,10.4
2023-04-19T18:27:11.991Z,10.4
2023-04-19T18:30:12.032Z,10.3
2023-04-19T18:33:12.289Z,10.3
2023-04-19T18:36:12.070Z,10.3
2023-04-19T18:39:11.867Z,10.1
2023-04-19T18:42:11.949Z,10
2023-04-19T18:45:12.755Z,9.9
2023-04-19T18:48:12.434Z,9.9
2023-04-19T18:51:11.926Z,9.8
2023-04-19T18:54:11.973Z,9.6
2023-04-19T18:57:40.759Z,9.5
2023-04-19T19:00:12.565Z,9.5
2023-04-19T19:06:14.311Z,9.4
2023-04-19T19:09:13.490Z,9.1
2023-04-19T19:12:11.967Z,9
2023-04-19T19:15:12.012Z,8.6
2023-04-19T19:18:12.304Z,8.3
2023-04-19T19:21:12.211Z,7.9
2023-04-19T19:24:11.884Z,7.6
2023-04-19T19:27:14.019Z,7.2
2023-04-19T19:30:12.447Z,7.1
2023-04-19T19:33:12.557Z,6.9
2023-04-19T19:36:11.937Z,6.6
2023-04-19T19:39:11.946Z,6.5
2023-04-19T19:42:18.765Z,6.4
2023-04-19T19:45:11.926Z,6.2
2023-04-19T19:48:13.855Z,6
2023-04-19T19:54:11.926Z,5.9
2023-04-19T20:03:14.264Z,5.7
2023-04-19T20:09:12.839Z,5.6
2023-04-19T20:12:11.860Z,5.5
2023-04-19T20:15:12.011Z,5.5
2023-04-19T20:18:12.166Z,5.4
2023-04-19T20:21:11.992Z,5.4
2023-04-19T20:24:12.047Z,5.4
2023-04-19T20:27:11.922Z,5.4
2023-04-19T20:30:11.977Z,5.4
2023-04-19T20:33:12.370Z,5.4
2023-04-19T20:36:12.233Z,5.4
2023-04-19T20:39:14.327Z,5.4
2023-04-19T20:42:12.463Z,5.4
2023-04-19T20:45:12.352Z,5.4
2023-04-19T20:48:12.446Z,5.4
2023-04-19T20:51:11.898Z,5.4
2023-04-19T20:54:11.876Z,5.2
2023-04-19T20:57:11.860Z,5.2
2023-04-19T21:00:11.995Z,5.2
2023-04-19T21:03:13.310Z,5.2
2023-04-19T21:06:12.017Z,5.2
2023-04-19T21:09:11.848Z,5.2
2023-04-19T21:12:11.981Z,5.1
2023-04-19T21:15:11.977Z,5.1
2023-04-19T21:18:12.240Z,5.1
2023-04-19T21:21:12.038Z,5.1
2023-04-19T21:24:11.957Z,5.1
2023-04-19T21:27:11.956Z,5.1
2023-04-19T21:30:11.999Z,5.1
2023-04-19T21:33:12.300Z,5.1
2023-04-19T21:36:11.927Z,5.1
2023-04-19T21:39:11.816Z,5.1
2023-04-19T21:42:11.991Z,5.2
2023-04-19T21:45:12.046Z,5.2
2023-04-19T21:48:12.187Z,5.2
2023-04-19T21:51:12.030Z,5.4
2023-04-19T21:54:20.482Z,5.4
2023-04-19T21:57:12.526Z,5.5
2023-04-19T22:00:12.382Z,5.5
2023-04-19T22:03:13.464Z,5.5
2023-04-19T22:06:11.898Z,5.6
2023-04-19T22:09:11.960Z,5.6
2023-04-19T22:12:12.032Z,5.6
2023-04-19T22:15:11.972Z,5.6
2023-04-19T22:18:12.403Z,5.6
2023-04-19T22:21:12.041Z,5.6
2023-04-19T22:24:11.802Z,5.6
2023-04-19T22:27:11.995Z,5.7
2023-04-19T22:30:11.898Z,5.7
2023-04-19T22:33:12.480Z,5.6
2023-04-19T22:36:11.897Z,5.6
2023-04-19T22:39:12.028Z,5.6
2023-04-19T22:42:11.882Z,5.6
2023-04-19T22:45:11.975Z,5.6
2023-04-19T22:48:12.325Z,5.6
2023-04-19T22:51:11.966Z,5.6
2023-04-19T22:54:11.971Z,5.6
2023-04-19T22:57:11.968Z,5.5
2023-04-19T23:00:12.078Z,5.5
2023-04-19T23:03:12.683Z,5.5
2023-04-19T23:06:14.779Z,5.5
2023-04-19T23:09:11.966Z,5.5
2023-04-19T23:12:11.965Z,5.4
2023-04-19T23:15:11.982Z,5.4
2023-04-19T23:18:12.203Z,5.4
2023-04-19T23:21:11.935Z,5.4
2023-04-19T23:24:12.037Z,5.2
2023-04-19T23:27:11.861Z,5.4
2023-04-19T23:30:11.990Z,5.4
2023-04-19T23:33:12.511Z,5.4
2023-04-19T23:36:12.034Z,5.2
2023-04-19T23:39:11.985Z,5.2
2023-04-19T23:42:11.912Z,5.1
2023-04-19T23:45:12.003Z,5.1
2023-04-19T23:48:12.493Z,5
2023-04-19T23:51:11.891Z,5
2023-04-19T23:54:11.969Z,5
2023-04-19T23:57:11.879Z,4.9
